• Join FlightAware (Why Join?)
  • Login
  • US Flag 
12:11PM EDT


 

Airport Tracker/Info


-or-


 

Live Flight TrackerFlight Track Log ✈ ANT536 ✈ 15-May-2013 ✈ CYVR - CYXY

Flight Track Log - Related Links

Times and Time Zones

All times are in EDT time to prevent confusion due to time zone crossing. See the ANT536 flight status page for this flight to view local times or setup timezone preferences in your user account.

Time Position Orientation Groundspeed Altitude Reporting Facility
EDT Latitude Longitude Course Direction KTS MPH feet Rate Location/Type
11:18PM 49.1667 -123.2167 334° Northwest 60 69 1,000  Level Vancouver Center
11:19PM 49.1833 -123.2833 291° West 210 242 2,700 1,980 Climbing Vancouver Center
11:20PM 49.2000 -123.3667 287° West 230 265 5,100 2,220 Climbing Vancouver Center
11:21PM 49.2667 -123.3833 351° North 270 311 7,200 2,460 Climbing Vancouver Center
11:22PM 49.3500 -123.4167 345° North 280 322 10,000 2,400 Climbing Vancouver Center
11:23PM 49.7357 -123.6684 334° Northwest  Level FlightAware Approximate
11:23PM 49.4333 -123.4167 360° North 330 380 12,000  Level Vancouver Center
11:24PM 49.5333 -123.3833 12° North 340 391 14,800 2,700 Climbing Vancouver Center
11:25PM 49.6333 -123.3667 North 360 414 17,500 2,640 Climbing Vancouver Center
11:26PM 49.7333 -123.3333 12° North 380 437 20,100 2,520 Climbing Vancouver Center
11:27PM 49.8500 -123.3000 10° North 390 449 22,500 2,160 Climbing Vancouver Center
11:28PM 49.9333 -123.3833 327° Northwest 390 449 24,500 2,040 Climbing Vancouver Center
11:29PM 50.0500 -123.4667 335° Northwest 400 460 26,600 1,740 Climbing Vancouver Center
11:30PM 50.1500 -123.5333 337° Northwest 410 472 28,100 1,740 Climbing Vancouver Center
11:31PM 50.2500 -123.6167 332° Northwest 430 495 30,100 2,220 Climbing Vancouver Center
11:32PM 50.3500 -123.7000 332° Northwest 410 472 32,600 1,920 Climbing Vancouver Center
11:33PM 50.4500 -123.7667 337° Northwest 400 460 34,000 1,440 Climbing Vancouver Center
11:34PM 50.5500 -123.8500 332° Northwest 400 460 35,500 960 Climbing Vancouver Center
11:35PM 50.6500 -123.9333 332° Northwest 410 472 36,000 240 Climbing Vancouver Center
11:36PM 50.7667 -124.0167 336° Northwest 410 472 36,000  Level Vancouver Center
11:37PM 50.8667 -124.0833 337° Northwest 410 472 36,000  Level Vancouver Center
11:38PM 50.9667 -124.1667 332° Northwest 410 472 36,000  Level Vancouver Center
11:39PM 51.0667 -124.2500 332° Northwest 410 472 36,000  Level Vancouver Center
11:40PM 51.1667 -124.3333 332° Northwest 410 472 36,000  Level Vancouver Center
11:41PM 51.2667 -124.4167 332° Northwest 410 472 36,000  Level Vancouver Center
11:42PM 51.3667 -124.5000 333° Northwest 400 460 36,000  Level Vancouver Center
11:43PM 51.4667 -124.5500 343° North 400 460 36,000  Level Vancouver Center
11:44PM 51.5667 -124.6500 328° Northwest 400 460 36,000  Level Vancouver Center
11:45PM 51.6667 -124.7167 338° Northwest 410 472 36,000  Level Vancouver Center
11:46PM 51.7667 -124.8000 333° Northwest 410 472 36,000  Level Vancouver Center
11:47PM 51.8667 -124.8833 333° Northwest 410 472 36,000  Level Vancouver Center
11:48PM 51.9833 -124.9667 336° Northwest 410 472 36,000  Level Vancouver Center
11:49PM 52.0667 -125.0500 328° Northwest 400 460 36,000  Level Vancouver Center
11:50PM 52.1833 -125.1333 336° Northwest 400 460 36,000  Level Vancouver Center
11:51PM 52.2667 -125.2167 329° Northwest 400 460 36,000  Level Vancouver Center
11:52PM 52.3667 -125.3000 333° Northwest 400 460 36,000  Level Vancouver Center
11:53PM 52.4667 -125.3833 333° Northwest 400 460 36,000  Level Vancouver Center
11:54PM 52.5667 -125.4667 333° Northwest 400 460 36,000  Level Vancouver Center
11:55PM 52.6667 -125.5667 329° Northwest 400 460 36,000  Level Vancouver Center
11:56PM 52.7667 -125.6167 343° North 400 460 36,000  Level Vancouver Center
11:57PM 52.8833 -125.7000 337° Northwest 410 472 36,000  Level Vancouver Center
11:58PM 52.9667 -125.8000 324° Northwest 410 472 36,000  Level Vancouver Center
11:59PM 53.0667 -125.8833 333° Northwest 410 472 36,000  Level Vancouver Center
12:00AM 53.1833 -125.9667 337° Northwest 410 472 36,000  Level Vancouver Center
12:01AM 53.2667 -126.0500 329° Northwest 410 472 36,000  Level Vancouver Center
12:02AM 53.3667 -126.1500 329° Northwest 410 472 36,000  Level Vancouver Center
12:03AM 53.4667 -126.2333 334° Northwest 410 472 36,000  Level Vancouver Center
12:04AM 53.5667 -126.3333 329° Northwest 410 472 36,000  Level Vancouver Center
12:05AM 53.6833 -126.4167 337° Northwest 410 472 36,000  Level Vancouver Center
12:06AM 53.7833 -126.5167 329° Northwest 410 472 36,000  Level Vancouver Center
12:07AM 53.8833 -126.6000 334° Northwest 410 472 36,000  Level Vancouver Center
12:08AM 53.9833 -126.6833 334° Northwest 410 472 36,000  Level Vancouver Center
12:09AM 54.0833 -126.7833 330° Northwest 410 472 36,000  Level Vancouver Center
12:10AM 54.1667 -126.8833 325° Northwest 410 472 36,000  Level Vancouver Center
12:11AM 54.2667 -126.9667 334° Northwest 410 472 36,000  Level Vancouver Center
12:12AM 54.3833 -127.0667 333° Northwest 410 472 36,000  Level Vancouver Center
12:13AM 54.4667 -127.1500 330° Northwest 410 472 36,000  Level Vancouver Center
12:14AM 54.5833 -127.2500 334° Northwest 410 472 36,000  Level Vancouver Center
12:15AM 54.6833 -127.3500 330° Northwest 410 472 36,000  Level Vancouver Center
12:16AM 54.7833 -127.4333 334° Northwest 410 472 36,000  Level Vancouver Center
12:17AM 54.8833 -127.5333 330° Northwest 430 495 36,000  Level Vancouver Center
12:18AM 54.9667 -127.6333 325° Northwest 410 472 36,000  Level Vancouver Center
12:19AM 55.0833 -127.7333 334° Northwest 410 472 36,000  Level Vancouver Center
12:20AM 55.1833 -127.8333 330° Northwest 400 460 36,000  Level Vancouver Center
12:21AM 55.2833 -127.9333 330° Northwest 410 472 36,000  Level Vancouver Center
12:22AM 55.3833 -128.0167 335° Northwest 410 472 36,000  Level Vancouver Center
12:23AM 55.4667 -128.1167 326° Northwest 400 460 36,000  Level Vancouver Center
12:24AM 55.5667 -128.2167 331° Northwest 400 460 36,000  Level Vancouver Center
12:25AM 55.6667 -128.3167 331° Northwest 410 472 36,000  Level Vancouver Center
12:26AM 55.7667 -128.4167 331° Northwest 400 460 36,000  Level Vancouver Center
12:27AM 55.8667 -128.5167 331° Northwest 410 472 36,000  Level Vancouver Center
12:28AM 55.9500 -128.6167 326° Northwest 400 460 36,000  Level Vancouver Center
12:29AM 56.0500 -128.7167 331° Northwest 400 460 36,000  Level Vancouver Center
12:30AM 56.1500 -128.8167 331° Northwest 400 460 36,000  Level Vancouver Center
12:31AM 56.2500 -128.9000 335° Northwest 400 460 36,000  Level Vancouver Center
12:32AM 56.3500 -129.0000 331° Northwest 400 460 36,000  Level Vancouver Center
12:33AM 56.4333 -129.1000 326° Northwest 410 472 36,000  Level Vancouver Center
12:34AM 56.5333 -129.2333 324° Northwest 410 472 36,000  Level Vancouver Center
12:35AM 56.6333 -129.3167 335° Northwest 400 460 36,000  Level Vancouver Center
12:36AM 56.7167 -129.4167 327° Northwest 400 460 36,000  Level Vancouver Center
12:37AM 56.8167 -129.5167 331° Northwest 400 460 36,000  Level Vancouver Center
12:38AM 56.9167 -129.6500 324° Northwest 390 449 36,000  Level Vancouver Center
12:40AM 57.0833 -129.9000 321° Northwest 380 437 36,000  Level Vancouver Center
12:42AM 57.2400 -130.0875 327° Northwest  Level FlightAware Approximate
12:49AM 57.8616 -130.8844 324° Northwest  Level FlightAware Approximate
12:50AM 57.9479 -131.0059 323° Northwest  Level FlightAware Approximate
12:51AM 58.0341 -131.1279 323° Northwest  Level FlightAware Approximate
12:52AM 58.1202 -131.2505 323° Northwest  Level FlightAware Approximate
12:53AM 58.2062 -131.3738 323° Northwest  Level FlightAware Approximate
12:54AM 58.2920 -131.4976 323° Northwest  Level FlightAware Approximate
12:55AM 58.3784 -131.6203 324° Northwest  Level FlightAware Approximate
12:56AM 58.4650 -131.7428 324° Northwest  Level FlightAware Approximate
12:57AM 58.5514 -131.8660 323° Northwest  Level FlightAware Approximate
12:58AM 58.6376 -131.9901 321° Northwest  Level FlightAware Approximate
12:59AM 58.7210 -132.1215 321° Northwest  Level FlightAware Approximate
01:00AM 58.8042 -132.2535 321° Northwest  Level FlightAware Approximate
01:01AM 58.8900 -132.3793 324° Northwest  Level FlightAware Approximate
01:02AM 58.9768 -132.5032 323° Northwest  Level FlightAware Approximate
01:03AM 59.0632 -132.6283 323° Northwest  Level FlightAware Approximate
01:04AM 59.1467 -132.7609 321° Northwest  Level FlightAware Approximate
01:05AM 59.2299 -132.8945 321° Northwest  Level FlightAware Approximate
01:06AM 59.3150 -133.0239 321° Northwest  Level FlightAware Approximate
01:07AM 59.3986 -133.1574 321° Northwest  Level FlightAware Approximate
01:08AM 59.4835 -133.2876 328° Northwest  Level FlightAware Approximate
01:09AM 59.5711 -133.4106 321° Northwest  Level FlightAware Approximate
01:10AM 59.6547 -133.5452 321° Northwest  Level FlightAware Approximate
01:11AM 59.7380 -133.6805 321° Northwest  Level FlightAware Approximate
01:12AM 59.8213 -133.8164 321° Northwest  Level FlightAware Approximate
01:13AM 59.9044 -133.9530 321° Northwest  Level FlightAware Approximate
01:14AM 59.9874 -134.0903 320° Northwest  Level FlightAware Approximate
01:15AM 60.0703 -134.2281 320° Northwest  Level FlightAware Approximate
01:16AM 60.1534 -134.3658 321° Northwest  Level FlightAware Approximate
01:17AM 60.2373 -134.5020 321° Northwest  Level FlightAware Approximate
01:18AM 60.3202 -134.6407 320° Northwest  Level FlightAware Approximate
01:19AM 60.4027 -134.7809 320° Northwest  Level FlightAware Approximate
01:20AM 60.4862 -134.9190 321° Northwest  Level FlightAware Approximate
01:21AM 60.5700 -135.0567 316° Northwest  Level FlightAware Approximate
01:22AM 60.6602 -135.0966 20° North  Level FlightAware Approximate
01:23AM 60.7000 -135.0667 20° North  Level FlightAware Approximate
01:24AM 60.7095 -135.0673 20° North  Level Estimated
01:25AM 60.7095 -135.0673 20° North  Level Estimated
01:26AM 60.7095 -135.0673 20° North  Level Estimated
01:27AM 60.7095 -135.0673 20° North  Level Estimated
01:28AM 60.7095 -135.0673 20° North  Level Estimated
01:29AM 60.7095 -135.0673 20° North  Level Estimated
01:30AM 60.7095 -135.0673 20° North  Level Estimated
01:31AM 60.7095 -135.0673 20° North  Level Estimated
01:32AM 60.7095 -135.0673 20° North  Level Estimated
01:33AM 60.7095 -135.0673 20° North  Level Estimated
01:34AM 60.7095 -135.0673 20° North  Level Estimated
01:35AM 60.7095 -135.0673 20° North  Level Estimated